Time;durP1;ratioP1;P1;durP2;ratioP2;P2;SDS_P1;SDS_P2;PMS_P1;PMS_P2;Temp;Humidity;BMP_temperature;BMP_pressure;BME280_temperature;BME280_humidity;BME280_pressure;Samples;Min_cycle;Max_cycle;Signal;HPM_P1;HPM_P2
2022/04/25 00:00:02;;;;;;;14.73;3.42;;;;;;;;;;4932355;29;20047;-65
2022/04/25 00:02:29;;;;;;;14.25;3.33;;;;;;;;;;4933163;29;20118;-66
2022/04/25 00:04:55;;;;;;;15.00;3.50;;;;;;;;;;4928623;29;20143;-64
2022/04/25 00:07:21;;;;;;;14.32;3.20;;;;;;;;;;4932801;29;20135;-65
2022/04/25 00:09:46;;;;;;;18.08;3.85;;;;;;;;;;4934232;29;20056;-64
2022/04/25 00:12:12;;;;;;;11.43;3.17;;;;;;;;;;4933734;29;20039;-64
2022/04/25 00:14:38;;;;;;;11.68;4.00;;;;;;;;;;4931405;29;20126;-69
2022/04/25 00:17:04;;;;;;;14.50;4.28;;;;;;;;;;4927573;29;20494;-64
2022/04/25 00:19:30;;;;;;;18.88;3.67;;;;;;;;;;4921773;29;20043;-65
2022/04/25 00:21:56;;;;;;;12.02;3.25;;;;;;;;;;4928784;29;20106;-65
2022/04/25 00:24:22;;;;;;;14.85;3.30;;;;;;;;;;4936171;29;20137;-66
2022/04/25 00:26:48;;;;;;;11.10;3.35;;;;;;;;;;4932091;29;20131;-65
2022/04/25 00:29:13;;;;;;;17.00;3.75;;;;;;;;;;4934815;29;20047;-64
2022/04/25 00:31:40;;;;;;;9.38;3.30;;;;;;;;;;4928468;29;20445;-65
2022/04/25 00:34:06;;;;;;;13.73;3.97;;;;;;;;;;4929345;29;20437;-66
2022/04/25 00:36:32;;;;;;;16.90;3.67;;;;;;;;;;4925237;29;20052;-65
2022/04/25 00:38:58;;;;;;;14.18;3.17;;;;;;;;;;4921585;29;20075;-67
2022/04/25 00:41:24;;;;;;;13.70;3.58;;;;;;;;;;4926167;29;20410;-66
2022/04/25 00:43:57;;;;;;;15.52;3.40;;;;;;;;;;4923264;29;20041;-65
2022/04/25 00:46:25;;;;;;;12.57;3.20;;;;;;;;;;4926510;29;20572;-64
2022/04/25 00:48:52;;;;;;;14.90;2.97;;;;;;;;;;4920909;29;20574;-64
2022/04/25 00:51:19;;;;;;;15.20;3.30;;;;;;;;;;4921338;29;20052;-64
2022/04/25 00:53:46;;;;;;;12.85;3.33;;;;;;;;;;4918752;29;20051;-66
2022/04/25 00:56:17;;;;;;;13.85;3.45;;;;;;;;;;4926795;29;20571;-64
2022/04/25 00:58:44;;;;;;;10.18;3.28;;;;;;;;;;4923903;29;20107;-63
2022/04/25 01:01:11;;;;;;;12.48;2.92;;;;;;;;;;4923249;29;20044;-65
2022/04/25 01:03:37;;;;;;;13.45;3.33;;;;;;;;;;4930698;29;20359;-63
2022/04/25 01:06:03;;;;;;;14.50;2.95;;;;;;;;;;4925827;29;20195;-64
2022/04/25 01:08:29;;;;;;;21.13;2.95;;;;;;;;;;4921165;29;20427;-65
2022/04/25 01:10:55;;;;;;;12.77;3.53;;;;;;;;;;4917786;29;20043;-63
2022/04/25 01:13:21;;;;;;;9.98;2.92;;;;;;;;;;4925375;29;20321;-67
2022/04/25 01:15:47;;;;;;;10.63;2.90;;;;;;;;;;4921000;29;20052;-63
2022/04/25 01:18:13;;;;;;;13.45;3.17;;;;;;;;;;4914821;29;20095;-63
2022/04/25 01:20:39;;;;;;;14.77;2.92;;;;;;;;;;4918000;29;20138;-62
2022/04/25 01:28:38;;;;;;;10.25;2.90;;;;;;;;;;4925366;29;20111;-66
2022/04/25 01:31:04;;;;;;;12.88;3.00;;;;;;;;;;4927294;29;20366;-66
2022/04/25 01:33:30;;;;;;;12.90;2.97;;;;;;;;;;4920889;29;20389;-64
2022/04/25 01:35:56;;;;;;;11.90;2.80;;;;;;;;;;4921848;29;20108;-63
2022/04/25 01:38:22;;;;;;;14.10;3.03;;;;;;;;;;4925431;29;20078;-65
2022/04/25 01:40:47;;;;;;;13.98;3.20;;;;;;;;;;4926948;29;20044;-64
2022/04/25 01:43:13;;;;;;;9.52;3.10;;;;;;;;;;4926232;29;20332;-67
2022/04/25 01:45:40;;;;;;;9.75;2.88;;;;;;;;;;4928656;29;20044;-65
2022/04/25 01:48:06;;;;;;;11.63;3.13;;;;;;;;;;4932008;29;20271;-64
2022/04/25 01:50:32;;;;;;;6.97;2.67;;;;;;;;;;4929415;29;20066;-63
2022/04/25 01:52:58;;;;;;;8.80;2.60;;;;;;;;;;4928400;29;20047;-64
2022/04/25 01:55:24;;;;;;;9.23;2.60;;;;;;;;;;4916288;29;20095;-63
2022/04/25 01:57:50;;;;;;;9.35;2.85;;;;;;;;;;4930637;29;20146;-64
2022/04/25 02:00:16;;;;;;;8.43;3.25;;;;;;;;;;4927261;29;20074;-64
2022/04/25 02:02:42;;;;;;;7.63;2.67;;;;;;;;;;4921718;29;20503;-65
2022/04/25 02:05:09;;;;;;;7.10;2.60;;;;;;;;;;4929176;29;20048;-64
2022/04/25 02:07:35;;;;;;;15.00;3.35;;;;;;;;;;4919463;29;20055;-65
2022/04/25 02:10:01;;;;;;;6.03;2.35;;;;;;;;;;4918576;29;20130;-64
2022/04/25 02:12:26;;;;;;;11.50;2.70;;;;;;;;;;4930932;29;20043;-64
2022/04/25 02:14:52;;;;;;;7.10;2.67;;;;;;;;;;4921583;29;20127;-66
2022/04/25 02:17:18;;;;;;;8.55;2.90;;;;;;;;;;4925237;29;20492;-64
2022/04/25 02:19:44;;;;;;;9.25;2.95;;;;;;;;;;4945792;29;20471;-66
2022/04/25 02:22:11;;;;;;;5.68;2.75;;;;;;;;;;4924374;29;20047;-66
2022/04/25 02:24:38;;;;;;;10.80;3.03;;;;;;;;;;4928530;29;20058;-64
2022/04/25 02:27:05;;;;;;;7.13;2.75;;;;;;;;;;4923626;29;20092;-65
2022/04/25 02:29:33;;;;;;;9.52;3.42;;;;;;;;;;4924020;29;20142;-65
2022/04/25 02:31:59;;;;;;;9.88;2.83;;;;;;;;;;4928836;29;20064;-64
2022/04/25 02:34:26;;;;;;;14.80;3.80;;;;;;;;;;4938456;28;20359;-63
2022/04/25 02:36:52;;;;;;;12.05;2.92;;;;;;;;;;4925557;29;20047;-64
2022/04/25 02:39:18;;;;;;;8.95;2.92;;;;;;;;;;4934850;29;20477;-67
2022/04/25 02:41:44;;;;;;;7.13;2.88;;;;;;;;;;4918160;29;20443;-64
2022/04/25 02:44:10;;;;;;;10.00;3.88;;;;;;;;;;4920643;29;20043;-65
2022/04/25 02:46:35;;;;;;;6.63;2.45;;;;;;;;;;4928733;29;20516;-63
2022/04/25 02:49:01;;;;;;;5.20;2.63;;;;;;;;;;4928197;29;20111;-71
2022/04/25 02:51:27;;;;;;;8.05;2.88;;;;;;;;;;4927147;29;20193;-63
2022/04/25 02:53:53;;;;;;;8.23;2.42;;;;;;;;;;4927540;29;20047;-64
2022/04/25 02:56:19;;;;;;;5.68;2.13;;;;;;;;;;4929503;29;20051;-64
2022/04/25 02:58:45;;;;;;;6.60;2.00;;;;;;;;;;4933341;29;20066;-64
2022/04/25 03:01:11;;;;;;;6.75;2.63;;;;;;;;;;4933874;29;20055;-64
2022/04/25 03:03:38;;;;;;;6.35;2.38;;;;;;;;;;4927584;29;20355;-65
2022/04/25 03:06:11;;;;;;;7.97;2.33;;;;;;;;;;4924748;29;20744;-64
2022/04/25 03:08:38;;;;;;;5.82;2.10;;;;;;;;;;4927919;29;20044;-66
2022/04/25 03:11:08;;;;;;;5.05;1.80;;;;;;;;;;4924759;29;20111;-64
2022/04/25 03:13:35;;;;;;;4.70;1.98;;;;;;;;;;4927916;29;20054;-64
2022/04/25 03:16:02;;;;;;;4.90;1.65;;;;;;;;;;4929219;29;20044;-63
2022/04/25 03:18:29;;;;;;;4.03;1.67;;;;;;;;;;4920129;29;20071;-62
2022/04/25 03:20:55;;;;;;;2.60;1.50;;;;;;;;;;4933974;29;20052;-64
2022/04/25 03:23:23;;;;;;;4.63;1.60;;;;;;;;;;4932244;29;20138;-64
2022/04/25 03:25:50;;;;;;;2.60;1.42;;;;;;;;;;4927339;29;20044;-63
2022/04/25 03:28:17;;;;;;;2.38;1.25;;;;;;;;;;4930631;29;20061;-64
2022/04/25 03:30:43;;;;;;;3.70;1.40;;;;;;;;;;4931124;29;20111;-62
2022/04/25 03:33:11;;;;;;;4.40;1.65;;;;;;;;;;4932733;29;20055;-63
2022/04/25 03:35:40;;;;;;;2.90;1.50;;;;;;;;;;4929948;29;20070;-65
2022/04/25 03:38:08;;;;;;;2.22;1.33;;;;;;;;;;4923247;29;20417;-64
2022/04/25 03:40:37;;;;;;;3.13;1.40;;;;;;;;;;4931254;29;20044;-63
2022/04/25 03:43:07;;;;;;;3.15;1.55;;;;;;;;;;4927057;29;20036;-62
2022/04/25 03:45:34;;;;;;;2.53;1.30;;;;;;;;;;4916623;29;20470;-64
2022/04/25 03:48:01;;;;;;;7.18;1.42;;;;;;;;;;4931223;29;20481;-64
2022/04/25 03:50:27;;;;;;;2.13;1.20;;;;;;;;;;4925682;29;20047;-66
2022/04/25 03:52:53;;;;;;;4.10;1.67;;;;;;;;;;4929960;29;20425;-64
2022/04/25 03:58:05;;;;;;;2.65;1.20;;;;;;;;;;4932420;29;20060;-63
2022/04/25 04:00:32;;;;;;;2.10;1.15;;;;;;;;;;4923529;29;20055;-63
2022/04/25 04:02:59;;;;;;;3.08;1.35;;;;;;;;;;4923743;29;20056;-63
2022/04/25 04:05:25;;;;;;;2.60;1.23;;;;;;;;;;4922445;29;20141;-63
2022/04/25 04:07:52;;;;;;;3.15;1.83;;;;;;;;;;4919369;29;20063;-62
2022/04/25 04:10:19;;;;;;;2.17;1.15;;;;;;;;;;4922793;29;20146;-62
2022/04/25 04:12:46;;;;;;;1.70;1.13;;;;;;;;;;4915852;29;20040;-65
2022/04/25 04:15:13;;;;;;;2.15;1.13;;;;;;;;;;4931097;29;20866;-64
2022/04/25 04:17:40;;;;;;;2.17;1.20;;;;;;;;;;4930302;29;20505;-65
2022/04/25 04:20:08;;;;;;;6.50;1.40;;;;;;;;;;4930874;29;20040;-64
2022/04/25 04:22:36;;;;;;;2.30;1.13;;;;;;;;;;4925558;29;20060;-63
2022/04/25 04:25:05;;;;;;;3.30;1.42;;;;;;;;;;4931051;29;20601;-64
2022/04/25 04:27:31;;;;;;;2.78;1.40;;;;;;;;;;4931751;29;20047;-63
2022/04/25 04:29:58;;;;;;;4.93;1.30;;;;;;;;;;4931831;29;20062;-65
2022/04/25 04:32:29;;;;;;;3.00;1.33;;;;;;;;;;4942348;29;20131;-62
2022/04/25 04:34:56;;;;;;;2.58;1.55;;;;;;;;;;4929336;29;20048;-63
2022/04/25 04:37:22;;;;;;;4.07;1.63;;;;;;;;;;4928174;29;20524;-63
2022/04/25 04:39:47;;;;;;;5.80;1.60;;;;;;;;;;4928180;29;20490;-62
2022/04/25 04:42:13;;;;;;;2.65;1.38;;;;;;;;;;4928125;29;20056;-65
2022/04/25 04:44:41;;;;;;;3.60;1.30;;;;;;;;;;4928599;29;20054;-63
2022/04/25 04:47:06;;;;;;;2.67;1.50;;;;;;;;;;4927865;29;20047;-63
2022/04/25 04:49:32;;;;;;;5.90;1.75;;;;;;;;;;4930568;29;20040;-63
2022/04/25 04:51:58;;;;;;;9.75;2.10;;;;;;;;;;4929831;29;20054;-62
2022/04/25 04:54:24;;;;;;;2.67;1.85;;;;;;;;;;4931669;29;20051;-62
2022/04/25 04:56:50;;;;;;;5.72;2.58;;;;;;;;;;4930803;29;20175;-64
2022/04/25 04:59:16;;;;;;;9.18;3.03;;;;;;;;;;4925658;29;20518;-64
2022/04/25 05:01:43;;;;;;;5.85;2.45;;;;;;;;;;4921344;29;20082;-65
2022/04/25 05:04:09;;;;;;;3.13;2.17;;;;;;;;;;4927105;29;20071;-63
2022/04/25 05:06:35;;;;;;;4.50;2.13;;;;;;;;;;4930068;29;20130;-62
2022/04/25 05:09:01;;;;;;;4.97;2.30;;;;;;;;;;4926993;29;20550;-63
2022/04/25 05:11:29;;;;;;;3.83;2.30;;;;;;;;;;4927896;29;20461;-64
2022/04/25 05:13:55;;;;;;;5.65;2.75;;;;;;;;;;4927161;29;20547;-63
2022/04/25 05:16:21;;;;;;;10.13;2.55;;;;;;;;;;4926226;29;20160;-65
2022/04/25 05:18:47;;;;;;;7.45;2.40;;;;;;;;;;4931081;29;20220;-67
2022/04/25 05:21:13;;;;;;;5.78;2.10;;;;;;;;;;4928862;29;20466;-65
2022/04/25 05:23:42;;;;;;;7.95;2.35;;;;;;;;;;4927902;29;20051;-65
2022/04/25 05:26:08;;;;;;;7.00;2.40;;;;;;;;;;4924545;29;20050;-63
2022/04/25 05:28:35;;;;;;;3.40;2.10;;;;;;;;;;4918919;29;20056;-67
2022/04/25 05:31:00;;;;;;;6.53;2.22;;;;;;;;;;4918530;29;20047;-64
2022/04/25 05:33:26;;;;;;;3.80;2.10;;;;;;;;;;4927260;29;20125;-66
2022/04/25 05:35:52;;;;;;;3.78;2.03;;;;;;;;;;4931020;29;20047;-64
2022/04/25 05:38:18;;;;;;;4.47;2.70;;;;;;;;;;4928980;29;20039;-63
2022/04/25 05:40:45;;;;;;;4.85;2.22;;;;;;;;;;4921637;29;20051;-63
2022/04/25 05:43:11;;;;;;;4.28;1.98;;;;;;;;;;4927233;29;20046;-63
2022/04/25 05:45:37;;;;;;;6.50;2.15;;;;;;;;;;4929123;29;20047;-64
2022/04/25 05:51:58;;;;;;;5.07;2.03;;;;;;;;;;4929914;29;20051;-65
2022/04/25 05:53:36;;;;;;;10.18;2.30;;;;;;;;;;4923039;29;20051;-63
2022/04/25 05:56:02;;;;;;;5.97;2.28;;;;;;;;;;4925557;29;20050;-65
2022/04/25 05:58:28;;;;;;;9.27;2.53;;;;;;;;;;4920516;29;20040;-62
2022/04/25 06:00:54;;;;;;;10.50;2.63;;;;;;;;;;4925933;29;20420;-63
2022/04/25 06:03:20;;;;;;;4.45;2.42;;;;;;;;;;4930979;29;20055;-63
2022/04/25 06:05:46;;;;;;;3.85;2.40;;;;;;;;;;4927552;29;20054;-63
2022/04/25 06:08:12;;;;;;;12.20;2.67;;;;;;;;;;4923377;29;20043;-65
2022/04/25 06:10:39;;;;;;;8.38;2.55;;;;;;;;;;4923073;29;20139;-66
2022/04/25 06:13:08;;;;;;;6.60;2.67;;;;;;;;;;4923941;29;20048;-66
2022/04/25 06:15:34;;;;;;;4.78;2.55;;;;;;;;;;4926123;29;20397;-63
2022/04/25 06:18:00;;;;;;;6.15;2.63;;;;;;;;;;4931183;29;20040;-64
2022/04/25 06:20:30;;;;;;;5.35;2.88;;;;;;;;;;4923013;29;20047;-66
2022/04/25 06:22:59;;;;;;;6.65;2.35;;;;;;;;;;4921946;29;20126;-67
2022/04/25 06:25:26;;;;;;;9.18;2.40;;;;;;;;;;4926487;29;20410;-66
2022/04/25 06:27:53;;;;;;;8.27;2.65;;;;;;;;;;4942110;28;20391;-65
2022/04/25 06:30:24;;;;;;;7.95;2.67;;;;;;;;;;4925883;29;20421;-65
2022/04/25 06:32:50;;;;;;;6.70;3.17;;;;;;;;;;4923816;29;20457;-66
2022/04/25 06:35:16;;;;;;;6.00;2.90;;;;;;;;;;4925952;29;20055;-66
2022/04/25 06:37:42;;;;;;;10.80;4.82;;;;;;;;;;4925129;29;20516;-64
2022/04/25 06:40:09;;;;;;;6.35;2.90;;;;;;;;;;4926965;29;20055;-66
2022/04/25 06:42:35;;;;;;;5.70;2.47;;;;;;;;;;4923473;29;20111;-66
2022/04/25 06:45:01;;;;;;;12.68;2.80;;;;;;;;;;4927239;29;20488;-66
2022/04/25 06:47:27;;;;;;;8.80;2.90;;;;;;;;;;4942038;28;20530;-64
2022/04/25 06:49:54;;;;;;;7.05;2.85;;;;;;;;;;4918564;29;20609;-68
2022/04/25 06:52:23;;;;;;;6.88;2.83;;;;;;;;;;4921986;29;20060;-66
2022/04/25 06:54:50;;;;;;;8.07;2.53;;;;;;;;;;4923910;29;20379;-66
2022/04/25 06:57:16;;;;;;;9.98;2.33;;;;;;;;;;4929105;29;20343;-66
2022/04/25 06:59:43;;;;;;;5.43;2.90;;;;;;;;;;4929275;29;20066;-64
2022/04/25 07:02:10;;;;;;;14.13;2.90;;;;;;;;;;4939864;28;20048;-62
2022/04/25 07:04:37;;;;;;;6.75;2.40;;;;;;;;;;4928060;29;20767;-69
2022/04/25 07:07:03;;;;;;;8.43;2.70;;;;;;;;;;4920880;29;20055;-65
2022/04/25 07:09:29;;;;;;;6.63;2.40;;;;;;;;;;4925435;29;20062;-64
2022/04/25 07:11:55;;;;;;;5.97;2.47;;;;;;;;;;4923056;29;20135;-66
2022/04/25 07:14:21;;;;;;;7.00;2.15;;;;;;;;;;4924309;29;20060;-66
2022/04/25 07:16:48;;;;;;;7.32;2.20;;;;;;;;;;4928302;29;20055;-66
2022/04/25 07:19:15;;;;;;;4.40;2.10;;;;;;;;;;4924033;29;20061;-70
2022/04/25 07:29:57;;;;;;;6.90;1.98;;;;;;;;;;4921141;29;20048;-65
2022/04/25 07:32:23;;;;;;;5.90;2.25;;;;;;;;;;4915237;29;20538;-65
2022/04/25 07:34:50;;;;;;;7.57;2.40;;;;;;;;;;4929095;29;20110;-67
2022/04/25 07:37:16;;;;;;;8.45;3.58;;;;;;;;;;4923647;29;20060;-65
2022/04/25 07:39:43;;;;;;;5.00;1.92;;;;;;;;;;4924808;29;20063;-65
2022/04/25 07:42:09;;;;;;;2.92;1.55;;;;;;;;;;4922560;29;20590;-67
2022/04/25 07:44:35;;;;;;;6.10;1.70;;;;;;;;;;4922961;29;20039;-67
2022/04/25 07:47:01;;;;;;;4.80;1.52;;;;;;;;;;4924661;29;20119;-66
2022/04/25 07:49:28;;;;;;;4.60;1.88;;;;;;;;;;4919604;29;20138;-64
2022/04/25 07:51:55;;;;;;;8.63;1.63;;;;;;;;;;4919307;29;20075;-66
2022/04/25 07:54:22;;;;;;;4.53;1.90;;;;;;;;;;4921969;29;21008;-66
2022/04/25 07:56:48;;;;;;;5.28;2.35;;;;;;;;;;4924478;29;20079;-66
2022/04/25 07:59:15;;;;;;;5.22;2.53;;;;;;;;;;4927993;29;20190;-66
2022/04/25 08:01:42;;;;;;;4.53;1.90;;;;;;;;;;4923943;29;20082;-66
2022/04/25 08:04:08;;;;;;;7.03;2.75;;;;;;;;;;4922612;29;20091;-66
2022/04/25 08:06:33;;;;;;;8.20;2.63;;;;;;;;;;4923586;29;20040;-65
2022/04/25 08:09:02;;;;;;;6.88;2.97;;;;;;;;;;4925986;29;20126;-66
2022/04/25 08:11:29;;;;;;;5.80;3.40;;;;;;;;;;4926691;29;20066;-67
2022/04/25 08:19:24;;;;;;;;;;;;;;;;;;4922236;29;20055;-65
2022/04/25 08:24:36;;;;;;;4.38;2.08;;;;;;;;;;4925701;29;20050;-65
2022/04/25 08:27:05;;;;;;;4.22;2.25;;;;;;;;;;4925592;29;20438;-65
2022/04/25 08:29:32;;;;;;;8.70;2.58;;;;;;;;;;4923619;29;20056;-69
2022/04/25 08:31:59;;;;;;;5.50;2.22;;;;;;;;;;4923309;29;20043;-65
2022/04/25 08:34:25;;;;;;;4.32;2.20;;;;;;;;;;4925433;29;20139;-65
2022/04/25 08:36:52;;;;;;;7.57;2.38;;;;;;;;;;4921290;29;20051;-66
2022/04/25 08:39:19;;;;;;;5.82;2.40;;;;;;;;;;4920960;29;20047;-67
2022/04/25 08:41:53;;;;;;;9.43;3.22;;;;;;;;;;4926521;29;20063;-70
2022/04/25 08:44:19;;;;;;;6.10;3.50;;;;;;;;;;4938501;28;20056;-68
2022/04/25 08:46:52;;;;;;;8.65;4.40;;;;;;;;;;4925834;29;20054;-65
2022/04/25 08:49:22;;;;;;;5.50;3.42;;;;;;;;;;4923717;29;20052;-69
2022/04/25 08:51:58;;;;;;;6.53;3.20;;;;;;;;;;4920124;29;20048;-68
2022/04/25 08:54:31;;;;;;;9.48;3.95;;;;;;;;;;4924316;29;20477;-67
2022/04/25 08:56:59;;;;;;;10.35;3.40;;;;;;;;;;4919289;29;20054;-67
2022/04/25 08:59:26;;;;;;;9.88;3.70;;;;;;;;;;4920674;29;20055;-70
2022/04/25 09:01:53;;;;;;;10.60;4.22;;;;;;;;;;4922556;29;20545;-68
2022/04/25 09:04:20;;;;;;;11.35;3.45;;;;;;;;;;4921473;29;20662;-70
2022/04/25 09:06:47;;;;;;;8.93;3.28;;;;;;;;;;4922041;29;20486;-66
2022/04/25 09:09:14;;;;;;;5.47;2.83;;;;;;;;;;4924077;29;20103;-67
2022/04/25 09:14:24;;;;;;;5.95;2.50;;;;;;;;;;4922223;29;20059;-66
2022/04/25 09:16:51;;;;;;;7.45;2.50;;;;;;;;;;4922180;29;20054;-68
2022/04/25 09:19:17;;;;;;;8.38;2.60;;;;;;;;;;4919033;29;20150;-68
2022/04/25 09:22:02;;;;;;;10.93;2.40;;;;;;;;;;4923295;29;20410;-69
2022/04/25 09:24:31;;;;;;;27.23;3.03;;;;;;;;;;4924831;29;20109;-69
2022/04/25 09:27:18;;;;;;;8.13;2.60;;;;;;;;;;4923774;29;20162;-65
2022/04/25 09:29:48;;;;;;;6.60;2.67;;;;;;;;;;4925761;29;20316;-74
2022/04/25 09:32:17;;;;;;;8.70;2.90;;;;;;;;;;4923222;29;20055;-71
2022/04/25 09:35:03;;;;;;;8.07;2.75;;;;;;;;;;4938564;28;20063;-68
2022/04/25 09:37:46;;;;;;;14.65;3.25;;;;;;;;;;4920055;29;20054;-75
2022/04/25 09:40:18;;;;;;;11.98;3.38;;;;;;;;;;4923467;29;20067;-74
2022/04/25 09:42:46;;;;;;;9.82;2.78;;;;;;;;;;4923304;29;20321;-74
2022/04/25 09:45:12;;;;;;;13.55;3.40;;;;;;;;;;4921913;29;20667;-71
2022/04/25 09:51:11;;;;;;;16.17;3.03;;;;;;;;;;4921488;29;20042;-71
2022/04/25 09:53:44;;;;;;;16.33;3.28;;;;;;;;;;4920196;29;20108;-72
2022/04/25 09:56:24;;;;;;;14.27;3.85;;;;;;;;;;4918618;29;20125;-70
2022/04/25 09:59:02;;;;;;;12.27;3.10;;;;;;;;;;4924171;29;20059;-73
2022/04/25 10:01:29;;;;;;;14.48;2.80;;;;;;;;;;4917738;29;20059;-73
2022/04/25 10:03:56;;;;;;;12.15;3.00;;;;;;;;;;4910938;29;20052;-75
2022/04/25 10:06:23;;;;;;;18.05;2.80;;;;;;;;;;4919062;29;20146;-74
2022/04/25 10:08:50;;;;;;;20.00;3.83;;;;;;;;;;4922474;29;20142;-72
2022/04/25 10:11:19;;;;;;;15.73;3.03;;;;;;;;;;4924088;29;20139;-75
2022/04/25 10:13:46;;;;;;;16.45;3.20;;;;;;;;;;4918917;29;20058;-73
2022/04/25 10:16:12;;;;;;;10.10;2.63;;;;;;;;;;4919817;29;20052;-71
2022/04/25 10:18:39;;;;;;;17.65;3.38;;;;;;;;;;4919064;29;20331;-76
2022/04/25 10:21:07;;;;;;;13.27;2.70;;;;;;;;;;4920631;29;20056;-66
2022/04/25 10:23:34;;;;;;;15.73;3.83;;;;;;;;;;4915975;29;20076;-72
2022/04/25 10:26:01;;;;;;;14.68;3.80;;;;;;;;;;4919099;29;20636;-72
2022/04/25 10:28:43;;;;;;;17.83;3.80;;;;;;;;;;4922177;29;20178;-66
2022/04/25 10:31:28;;;;;;;12.43;3.45;;;;;;;;;;4916660;29;20111;-69
2022/04/25 10:33:59;;;;;;;18.90;3.92;;;;;;;;;;4921017;29;20128;-69
2022/04/25 10:36:46;;;;;;;14.85;3.50;;;;;;;;;;4921173;29;20059;-69
2022/04/25 10:39:20;;;;;;;17.38;2.92;;;;;;;;;;4922190;29;20052;-68
2022/04/25 10:44:42;;;;;;;16.23;3.20;;;;;;;;;;4922923;29;20043;-68
2022/04/25 10:47:09;;;;;;;17.70;3.03;;;;;;;;;;4920708;29;20122;-69
2022/04/25 10:49:58;;;;;;;11.65;3.45;;;;;;;;;;4922498;29;20051;-67
2022/04/25 10:52:33;;;;;;;13.45;3.17;;;;;;;;;;4920580;29;20056;-68
2022/04/25 10:55:31;;;;;;;9.88;3.05;;;;;;;;;;4922237;29;20062;-67
2022/04/25 10:58:04;;;;;;;12.90;3.10;;;;;;;;;;4923185;29;20063;-68
2022/04/25 11:00:44;;;;;;;14.35;3.13;;;;;;;;;;4925907;29;20102;-72
2022/04/25 11:03:10;;;;;;;13.68;2.85;;;;;;;;;;4924465;29;20078;-68
2022/04/25 11:05:38;;;;;;;14.23;3.53;;;;;;;;;;4925826;29;20463;-69
2022/04/25 11:08:19;;;;;;;15.75;3.50;;;;;;;;;;4924627;29;20039;-70
2022/04/25 11:11:12;;;;;;;12.15;3.10;;;;;;;;;;4926340;29;20052;-69
2022/04/25 11:13:50;;;;;;;10.95;2.88;;;;;;;;;;4925533;29;20087;-70
2022/04/25 11:16:21;;;;;;;12.13;3.17;;;;;;;;;;4928942;29;20079;-72
2022/04/25 11:19:05;;;;;;;16.25;3.10;;;;;;;;;;4928438;29;20150;-71
2022/04/25 11:21:34;;;;;;;12.40;3.33;;;;;;;;;;4926301;29;20055;-70
2022/04/25 11:24:02;;;;;;;10.27;2.67;;;;;;;;;;4926160;29;20134;-69
2022/04/25 11:26:33;;;;;;;12.02;2.92;;;;;;;;;;4925910;29;20773;-69
2022/04/25 11:29:03;;;;;;;15.57;3.38;;;;;;;;;;4928663;29;20142;-69
2022/04/25 11:31:33;;;;;;;16.45;3.13;;;;;;;;;;4942111;29;20056;-69
2022/04/25 11:34:02;;;;;;;13.80;3.45;;;;;;;;;;4937369;28;20059;-69
2022/04/25 11:36:39;;;;;;;16.88;3.95;;;;;;;;;;4926065;29;20060;-71
2022/04/25 11:41:50;;;;;;;10.73;2.90;;;;;;;;;;4926850;29;20449;-69
2022/04/25 11:44:17;;;;;;;14.57;3.35;;;;;;;;;;4925279;29;20062;-68
2022/04/25 11:46:44;;;;;;;19.13;3.40;;;;;;;;;;4924460;29;20204;-72
2022/04/25 11:49:10;;;;;;;9.13;2.85;;;;;;;;;;4925358;29;20051;-69
2022/04/25 11:51:38;;;;;;;12.32;2.83;;;;;;;;;;4925029;29;20058;-67
2022/04/25 11:54:07;;;;;;;13.05;3.33;;;;;;;;;;4920138;29;20043;-69
2022/04/25 11:56:37;;;;;;;12.40;3.00;;;;;;;;;;4939391;28;20044;-69
2022/04/25 11:59:07;;;;;;;14.25;2.90;;;;;;;;;;4926725;29;20103;-68
2022/04/25 12:01:47;;;;;;;16.73;3.05;;;;;;;;;;4926653;29;20044;-68
2022/04/25 12:04:27;;;;;;;15.65;3.40;;;;;;;;;;4924471;29;20048;-69
2022/04/25 12:06:53;;;;;;;15.10;3.05;;;;;;;;;;4925590;29;20048;-68
2022/04/25 12:18:13;;;;;;;12.90;3.20;;;;;;;;;;4922260;29;20115;-68
2022/04/25 12:20:40;;;;;;;15.63;3.10;;;;;;;;;;4922282;29;20481;-70
2022/04/25 12:23:06;;;;;;;8.85;2.55;;;;;;;;;;4875683;29;20360;-68
2022/04/25 12:25:39;;;;;;;12.27;3.20;;;;;;;;;;4924832;29;20138;-66
2022/04/25 12:28:18;;;;;;;11.40;2.83;;;;;;;;;;4921469;29;20116;-69
2022/04/25 12:30:49;;;;;;;8.40;2.85;;;;;;;;;;4925152;29;20051;-68
2022/04/25 12:33:16;;;;;;;12.82;3.15;;;;;;;;;;4922448;29;20102;-69
2022/04/25 12:35:44;;;;;;;13.10;2.97;;;;;;;;;;4927133;29;20123;-69
2022/04/25 12:38:10;;;;;;;13.55;2.80;;;;;;;;;;4925919;29;20067;-70
2022/04/25 12:40:56;;;;;;;11.95;2.92;;;;;;;;;;4923508;29;20090;-68
2022/04/25 12:43:36;;;;;;;8.27;2.35;;;;;;;;;;4918888;29;20063;-69
2022/04/25 12:46:03;;;;;;;10.13;2.67;;;;;;;;;;4919184;29;20080;-68
2022/04/25 12:48:29;;;;;;;12.57;3.15;;;;;;;;;;4925749;29;20055;-73
2022/04/25 12:50:55;;;;;;;11.73;3.30;;;;;;;;;;4926962;29;20059;-70
2022/04/25 12:53:41;;;;;;;9.60;2.45;;;;;;;;;;4925389;29;20094;-70
2022/04/25 12:56:08;;;;;;;11.80;2.90;;;;;;;;;;4925679;29;20555;-67
2022/04/25 12:58:34;;;;;;;12.65;2.80;;;;;;;;;;4925693;29;20074;-69
2022/04/25 13:01:00;;;;;;;11.70;3.10;;;;;;;;;;4927584;29;20051;-70
2022/04/25 13:04:03;;;;;;;11.57;3.22;;;;;;;;;;4938125;28;20063;-68
2022/04/25 13:06:30;;;;;;;13.52;3.03;;;;;;;;;;4928347;29;20130;-69
2022/04/25 13:08:56;;;;;;;10.88;3.35;;;;;;;;;;4939073;28;20685;-69
2022/04/25 13:11:25;;;;;;;9.20;2.83;;;;;;;;;;4923371;29;20486;-68
2022/04/25 13:13:51;;;;;;;14.10;3.15;;;;;;;;;;4918360;29;20223;-69
2022/04/25 13:16:17;;;;;;;10.75;2.80;;;;;;;;;;4937531;28;20406;-69
2022/04/25 13:18:43;;;;;;;12.98;3.35;;;;;;;;;;4922302;29;20560;-68
2022/04/25 13:21:13;;;;;;;12.65;3.55;;;;;;;;;;4922313;29;20040;-67
2022/04/25 13:23:40;;;;;;;11.27;2.95;;;;;;;;;;4920515;29;20406;-69
2022/04/25 13:26:06;;;;;;;11.18;3.00;;;;;;;;;;4923246;29;21111;-70
2022/04/25 13:28:32;;;;;;;8.25;2.80;;;;;;;;;;4921207;29;20490;-69
2022/04/25 13:30:58;;;;;;;11.10;3.00;;;;;;;;;;4923076;29;20065;-71
2022/04/25 13:33:27;;;;;;;10.73;2.78;;;;;;;;;;4926943;29;20063;-71
2022/04/25 13:35:56;;;;;;;7.95;2.47;;;;;;;;;;4924241;29;20093;-68
2022/04/25 13:38:22;;;;;;;15.00;3.45;;;;;;;;;;4923064;29;20059;-69
2022/04/25 13:40:48;;;;;;;16.98;3.42;;;;;;;;;;4923101;29;20490;-70
2022/04/25 13:43:15;;;;;;;14.00;3.30;;;;;;;;;;4922371;29;20114;-70
2022/04/25 13:45:42;;;;;;;11.70;2.97;;;;;;;;;;4923599;29;20047;-69
2022/04/25 13:48:09;;;;;;;10.68;2.70;;;;;;;;;;4922608;29;20051;-71
2022/04/25 13:50:35;;;;;;;11.52;3.17;;;;;;;;;;4924505;29;20051;-68
2022/04/25 13:53:02;;;;;;;15.70;2.70;;;;;;;;;;4918175;29;20261;-66
2022/04/25 13:55:33;;;;;;;12.70;3.55;;;;;;;;;;4922485;29;20063;-69
2022/04/25 13:58:00;;;;;;;16.52;3.38;;;;;;;;;;4922190;29;20080;-68
2022/04/25 14:00:27;;;;;;;13.43;3.15;;;;;;;;;;4923536;29;20549;-68
2022/04/25 14:03:11;;;;;;;13.32;3.53;;;;;;;;;;4922369;29;20063;-69
2022/04/25 14:05:40;;;;;;;11.57;2.30;;;;;;;;;;4923342;29;20048;-73
2022/04/25 14:08:08;;;;;;;11.75;3.00;;;;;;;;;;4925015;29;20495;-70
2022/04/25 14:10:53;;;;;;;6.57;2.63;;;;;;;;;;4924484;29;20126;-72
2022/04/25 14:13:20;;;;;;;8.25;2.60;;;;;;;;;;4918315;29;20689;-68
2022/04/25 14:15:46;;;;;;;6.75;2.10;;;;;;;;;;4925974;29;20059;-68
2022/04/25 14:18:12;;;;;;;10.55;2.40;;;;;;;;;;4938912;28;20512;-70
2022/04/25 14:20:41;;;;;;;8.95;2.22;;;;;;;;;;4921926;29;20043;-67
2022/04/25 14:23:08;;;;;;;8.70;2.60;;;;;;;;;;4919280;29;20479;-68
2022/04/25 14:25:36;;;;;;;7.82;2.55;;;;;;;;;;4925188;29;20134;-68
2022/04/25 14:28:03;;;;;;;9.60;2.42;;;;;;;;;;4920753;29;20146;-69
2022/04/25 14:30:30;;;;;;;12.02;2.20;;;;;;;;;;4923604;29;20055;-70
2022/04/25 14:32:57;;;;;;;11.52;2.15;;;;;;;;;;4920711;29;20048;-69
2022/04/25 14:35:24;;;;;;;10.88;2.10;;;;;;;;;;4927326;29;20494;-68
2022/04/25 14:37:51;;;;;;;10.70;2.30;;;;;;;;;;4926368;29;20060;-67
2022/04/25 14:40:18;;;;;;;10.50;2.50;;;;;;;;;;4923431;29;20126;-67
2022/04/25 14:42:47;;;;;;;9.00;2.10;;;;;;;;;;4921606;29;20055;-70
2022/04/25 14:45:14;;;;;;;11.60;2.42;;;;;;;;;;4927587;29;20103;-68
2022/04/25 14:47:59;;;;;;;6.03;1.90;;;;;;;;;;4927836;29;20783;-67
2022/04/25 14:55:55;;;;;;;6.72;2.10;;;;;;;;;;4928153;29;20071;-66
2022/04/25 14:58:22;;;;;;;7.68;2.63;;;;;;;;;;4925238;29;20048;-68
2022/04/25 15:00:48;;;;;;;9.63;2.35;;;;;;;;;;4927408;29;20576;-69
2022/04/25 15:03:16;;;;;;;5.80;2.05;;;;;;;;;;4924804;29;20039;-74
2022/04/25 15:05:43;;;;;;;11.27;2.47;;;;;;;;;;4927966;29;20079;-69
2022/04/25 15:08:11;;;;;;;8.30;2.25;;;;;;;;;;4926442;29;20106;-70
2022/04/25 15:10:38;;;;;;;10.68;2.50;;;;;;;;;;4927009;29;20066;-69
2022/04/25 15:13:08;;;;;;;10.15;2.25;;;;;;;;;;4927923;29;20056;-68
2022/04/25 15:15:35;;;;;;;8.43;2.00;;;;;;;;;;4926915;29;20056;-69
2022/04/25 15:18:01;;;;;;;7.65;2.22;;;;;;;;;;4926220;29;20066;-69
2022/04/25 15:20:27;;;;;;;7.90;2.35;;;;;;;;;;4926131;29;20492;-68
2022/04/25 15:22:53;;;;;;;12.40;2.53;;;;;;;;;;4923768;29;20077;-71
2022/04/25 15:25:19;;;;;;;8.05;2.20;;;;;;;;;;4927144;29;20509;-72
2022/04/25 15:27:45;;;;;;;6.47;1.88;;;;;;;;;;4927465;29;20044;-69
2022/04/25 15:30:12;;;;;;;9.30;2.13;;;;;;;;;;4927604;29;20139;-67
2022/04/25 15:32:38;;;;;;;5.97;1.77;;;;;;;;;;4925912;29;20044;-69
2022/04/25 15:35:04;;;;;;;8.90;2.03;;;;;;;;;;4928237;29;20076;-68
2022/04/25 15:37:31;;;;;;;7.25;1.50;;;;;;;;;;4927614;29;20048;-70